KGYY/GYY METAR and TAF weather

Enter ICAO airport designator
Station Type Date Time Source
KGYY METAR 2019/10/14 06:15 UTC NOAA

KGYY 140615Z AUTO 27006KT 10SM OVC060 08/00 A2997 RMK AO2 T00821002


Station Type Date Time Source
KGYY Decoded METAR 2019/10/14 06:15 UTC NOAA

Gary Regional, IN, United States (KGYY) 41-37N 087-25W
Oct 14, 2019 - 02:15 AM EDT / 2019.10.14 0615 UTC
Wind: from the W (270 degrees) at 7 MPH (6 KT):0
Visibility: 10 mile(s):0
Sky conditions: overcast
Temperature: 46.8 F (8.2 C)
Dew Point: 31.6 F (-0.2 C)
Relative Humidity: 55%
Pressure (altimeter): 29.97 in. Hg (1014 hPa)
ob: KGYY 140615Z AUTO 27006KT 10SM OVC060 08/00 A2997 RMK AO2 T00821002
cycle: 6

Station Type Date Time Source
KGYY TAF 2019/10/14 06:22 UTC NOAA

TAF KGYY 140520Z 1406/1506 27006KT P6SM BKN060
FM150200 16004KT P6SM SCT250

Example: see airport list